Time;durP1;ratioP1;P1;durP2;ratioP2;P2;SDS_P1;SDS_P2;PMS_P1;PMS_P2;Temp;Humidity;BMP_temperature;BMP_pressure;BME280_temperature;BME280_humidity;BME280_pressure;Samples;Min_cycle;Max_cycle;Signal;HPM_P1;HPM_P2
2022/05/19 00:01:23;;;;;;;2.20;2.00;;;15.90;49.90;;;;;;5010099;28;20060;-79
2022/05/19 00:03:49;;;;;;;2.58;2.38;;;15.90;50.00;;;;;;5010248;28;20117;-79
2022/05/19 00:06:16;;;;;;;3.60;2.30;;;15.80;50.00;;;;;;5010578;28;20060;-79
2022/05/19 00:08:42;;;;;;;3.58;2.50;;;15.80;50.00;;;;;;5010865;28;20038;-79
2022/05/19 00:11:12;;;;;;;3.50;2.10;;;15.80;50.10;;;;;;5012544;28;20087;-79
2022/05/19 00:13:38;;;;;;;2.13;1.92;;;15.80;50.20;;;;;;5009807;28;20843;-79
2022/05/19 00:16:05;;;;;;;4.50;2.20;;;15.80;50.20;;;;;;5009820;28;20038;-79
2022/05/19 00:18:32;;;;;;;2.45;2.25;;;15.80;50.30;;;;;;5010249;28;20421;-79
2022/05/19 00:20:59;;;;;;;2.28;2.15;;;15.80;50.30;;;;;;5022609;28;20061;-79
2022/05/19 00:23:25;;;;;;;3.58;2.00;;;15.80;50.30;;;;;;5009665;28;20042;-78
2022/05/19 00:25:51;;;;;;;2.97;2.15;;;15.80;50.30;;;;;;5008753;28;20034;-78
2022/05/19 00:28:17;;;;;;;2.80;2.15;;;15.80;50.30;;;;;;5009928;28;20041;-79
2022/05/19 00:30:43;;;;;;;3.35;2.13;;;15.80;50.40;;;;;;5009930;28;20091;-78
2022/05/19 00:33:11;;;;;;;3.47;2.10;;;15.80;50.50;;;;;;5010063;28;20045;-78
2022/05/19 00:35:39;;;;;;;2.58;1.85;;;15.80;50.50;;;;;;5008903;28;20057;-79
2022/05/19 00:38:05;;;;;;;2.88;1.90;;;15.80;50.60;;;;;;5008100;28;20452;-78
2022/05/19 00:40:32;;;;;;;4.28;2.22;;;15.80;50.60;;;;;;5008990;28;20049;-79
2022/05/19 00:42:58;;;;;;;3.63;2.28;;;15.80;50.70;;;;;;5007737;28;21245;-81
2022/05/19 00:45:28;;;;;;;4.57;2.10;;;15.80;50.60;;;;;;5009028;28;20054;-79
2022/05/19 00:48:04;;;;;;;3.42;1.98;;;15.80;50.60;;;;;;5008970;28;20057;-79
2022/05/19 00:50:59;;;;;;;2.67;2.47;;;15.80;50.60;;;;;;5009197;28;20067;-79
2022/05/19 00:53:35;;;;;;;1.92;1.77;;;15.90;50.70;;;;;;4994365;28;20088;-79
2022/05/19 00:56:12;;;;;;;2.20;2.10;;;15.90;51.30;;;;;;5008311;28;20044;-79
2022/05/19 00:58:51;;;;;;;3.55;1.90;;;15.80;50.60;;;;;;5008922;28;21450;-79
2022/05/19 01:01:18;;;;;;;4.15;2.20;;;15.80;50.60;;;;;;5009154;28;20072;-81
2022/05/19 01:03:57;;;;;;;2.70;2.33;;;15.80;50.70;;;;;;5008887;28;20084;-80
2022/05/19 01:06:25;;;;;;;1.85;1.75;;;15.80;50.70;;;;;;4990883;28;20477;-80
2022/05/19 01:08:54;;;;;;;2.25;1.95;;;15.80;50.70;;;;;;5008207;28;20061;-78
2022/05/19 01:11:21;;;;;;;3.97;1.70;;;15.80;50.70;;;;;;5008556;28;20029;-81
2022/05/19 01:13:47;;;;;;;2.50;2.30;;;15.80;50.80;;;;;;5009254;28;20034;-80
2022/05/19 01:16:14;;;;;;;2.38;1.73;;;15.80;50.80;;;;;;5011443;28;20037;-79
2022/05/19 01:18:41;;;;;;;1.90;1.80;;;15.80;50.90;;;;;;5010953;28;20538;-79
2022/05/19 01:21:09;;;;;;;2.20;1.90;;;15.80;50.90;;;;;;5007296;28;20195;-79
2022/05/19 01:24:11;;;;;;;1.98;1.63;;;15.80;50.90;;;;;;5008372;28;20558;-79
2022/05/19 01:26:50;;;;;;;2.78;1.88;;;15.80;50.90;;;;;;5005343;28;20041;-81
2022/05/19 01:29:19;;;;;;;3.50;2.03;;;15.80;50.80;;;;;;5008125;28;20112;-76
2022/05/19 01:31:57;;;;;;;2.50;1.77;;;15.80;51.00;;;;;;5007739;28;20104;-77
2022/05/19 01:34:26;;;;;;;2.47;1.80;;;15.90;51.40;;;;;;5007380;28;20113;-76
2022/05/19 01:36:52;;;;;;;1.95;1.73;;;15.90;51.50;;;;;;5007636;28;20038;-76
2022/05/19 01:39:27;;;;;;;1.73;1.63;;;15.90;51.60;;;;;;5007795;28;20041;-77
2022/05/19 01:41:53;;;;;;;1.92;1.70;;;15.90;51.80;;;;;;5006229;28;20038;-77
2022/05/19 01:44:37;;;;;;;2.25;1.80;;;15.90;51.90;;;;;;5007006;28;20532;-77
2022/05/19 01:47:09;;;;;;;2.15;1.70;;;15.90;52.00;;;;;;5007609;28;20038;-77
2022/05/19 01:49:48;;;;;;;2.20;1.63;;;15.90;52.00;;;;;;5007308;28;20060;-77
2022/05/19 01:52:19;;;;;;;3.90;2.10;;;15.90;52.10;;;;;;5007941;28;20512;-77
2022/05/19 01:55:03;;;;;;;2.33;1.90;;;15.90;52.10;;;;;;5007696;28;20116;-76
2022/05/19 01:57:37;;;;;;;2.15;1.80;;;15.90;52.10;;;;;;5006478;28;20030;-77
2022/05/19 02:00:15;;;;;;;2.05;1.67;;;15.90;52.10;;;;;;5005538;28;20125;-78
2022/05/19 02:03:00;;;;;;;2.10;2.00;;;15.90;52.30;;;;;;5007533;28;20417;-77
2022/05/19 02:05:48;;;;;;;3.80;1.60;;;15.90;52.30;;;;;;5007050;28;20042;-77
2022/05/19 02:08:30;;;;;;;1.67;1.50;;;15.90;52.30;;;;;;4998199;28;20045;-77
2022/05/19 02:11:00;;;;;;;2.17;1.80;;;15.90;52.40;;;;;;5006932;28;20032;-77
2022/05/19 02:13:28;;;;;;;2.72;1.50;;;15.90;52.40;;;;;;5007796;28;20030;-77
2022/05/19 02:15:55;;;;;;;2.53;1.70;;;15.90;52.40;;;;;;5007793;28;20088;-77
2022/05/19 02:18:25;;;;;;;2.28;1.70;;;15.90;52.40;;;;;;5007836;28;20080;-76
2022/05/19 02:20:54;;;;;;;3.90;1.90;;;15.90;52.40;;;;;;5005042;28;20041;-77
2022/05/19 02:23:20;;;;;;;1.65;1.50;;;16.00;52.40;;;;;;5006401;28;20042;-76
2022/05/19 02:25:49;;;;;;;1.92;1.75;;;16.00;52.40;;;;;;5007658;28;20057;-76
2022/05/19 02:28:27;;;;;;;1.65;1.55;;;16.00;52.40;;;;;;5009734;28;20068;-77
2022/05/19 02:30:55;;;;;;;2.17;1.77;;;16.00;52.50;;;;;;5007287;28;20060;-77
2022/05/19 02:33:22;;;;;;;3.40;1.90;;;16.00;52.40;;;;;;5004885;28;20037;-76
2022/05/19 02:35:48;;;;;;;2.22;1.88;;;16.00;52.50;;;;;;5006430;28;20065;-76
2022/05/19 02:38:15;;;;;;;5.60;1.75;;;16.00;52.60;;;;;;5006996;28;20052;-78
2022/05/19 02:40:42;;;;;;;2.10;1.75;;;16.10;52.60;;;;;;5005706;28;20041;-79
2022/05/19 02:43:09;;;;;;;1.83;1.73;;;16.00;52.60;;;;;;5006270;28;20042;-77
2022/05/19 02:45:36;;;;;;;2.65;1.30;;;16.00;52.60;;;;;;5004895;28;20049;-78
2022/05/19 02:48:04;;;;;;;3.38;1.55;;;16.10;52.70;;;;;;5006924;28;20144;-77
2022/05/19 02:50:30;;;;;;;2.22;1.77;;;16.10;52.60;;;;;;5006628;28;20045;-77
2022/05/19 02:52:57;;;;;;;1.75;1.52;;;16.20;52.80;;;;;;5006928;28;20463;-77
2022/05/19 02:55:23;;;;;;;1.60;1.50;;;16.20;52.80;;;;;;5020055;28;20038;-77
2022/05/19 02:57:50;;;;;;;3.60;1.55;;;16.30;52.80;;;;;;5020659;28;20124;-78
2022/05/19 03:00:19;;;;;;;1.50;1.40;;;16.40;52.70;;;;;;5006810;28;20030;-77
2022/05/19 03:02:46;;;;;;;2.20;1.60;;;16.50;53.20;;;;;;5006371;28;20622;-78
2022/05/19 03:05:15;;;;;;;2.42;2.17;;;16.50;52.90;;;;;;5006347;28;20037;-77
2022/05/19 03:07:42;;;;;;;1.60;1.50;;;16.50;52.30;;;;;;5005715;28;20128;-77
2022/05/19 03:10:09;;;;;;;1.55;1.45;;;16.60;52.40;;;;;;4982516;28;20121;-77
2022/05/19 03:12:35;;;;;;;3.50;1.75;;;16.60;52.20;;;;;;5006211;28;20530;-76
2022/05/19 03:15:02;;;;;;;2.67;1.50;;;16.60;52.20;;;;;;5006430;28;20026;-76
2022/05/19 03:17:28;;;;;;;2.33;1.63;;;16.60;52.30;;;;;;5007957;28;20057;-76
2022/05/19 03:19:55;;;;;;;2.38;1.73;;;16.60;52.30;;;;;;5009961;28;20037;-76
2022/05/19 03:22:25;;;;;;;1.80;1.70;;;16.60;52.30;;;;;;5009114;28;20038;-76
2022/05/19 03:24:51;;;;;;;1.98;1.60;;;16.60;52.20;;;;;;5010007;28;20400;-76
2022/05/19 03:27:20;;;;;;;2.05;1.50;;;16.60;52.20;;;;;;5010079;28;20042;-75
2022/05/19 03:29:47;;;;;;;2.05;1.73;;;16.50;52.20;;;;;;5010721;28;20477;-76
2022/05/19 03:32:13;;;;;;;2.03;1.60;;;16.50;52.30;;;;;;5010273;28;20054;-76
2022/05/19 03:34:39;;;;;;;2.88;1.60;;;16.50;52.30;;;;;;5008638;28;20030;-78
2022/05/19 03:37:06;;;;;;;8.20;1.85;;;16.50;52.30;;;;;;5010243;28;20034;-78
2022/05/19 03:39:34;;;;;;;2.55;1.52;;;16.50;52.30;;;;;;5008911;28;20084;-77
2022/05/19 03:42:00;;;;;;;1.85;1.75;;;16.60;52.30;;;;;;5010311;28;20030;-77
2022/05/19 03:44:26;;;;;;;2.10;1.85;;;16.50;52.30;;;;;;5010291;28;20088;-77
2022/05/19 03:46:52;;;;;;;1.50;1.40;;;16.50;52.50;;;;;;5009791;28;20050;-77
2022/05/19 03:49:18;;;;;;;3.47;1.50;;;16.60;52.50;;;;;;5007226;28;20038;-78
2022/05/19 03:51:44;;;;;;;1.70;1.58;;;16.60;52.50;;;;;;5009312;28;20123;-78
2022/05/19 03:54:11;;;;;;;1.48;1.35;;;16.60;52.40;;;;;;5009475;28;20077;-78
2022/05/19 03:56:37;;;;;;;3.33;1.65;;;16.60;52.20;;;;;;5008950;28;20076;-77
2022/05/19 03:59:04;;;;;;;2.42;1.70;;;16.60;52.20;;;;;;5006799;28;20049;-77
2022/05/19 04:01:30;;;;;;;2.85;1.63;;;16.60;52.20;;;;;;5007127;28;20491;-77
2022/05/19 04:03:57;;;;;;;1.52;1.42;;;16.50;52.20;;;;;;5009024;28;20030;-77
2022/05/19 04:06:29;;;;;;;1.98;1.80;;;16.50;52.10;;;;;;5000657;28;20044;-77
2022/05/19 04:08:55;;;;;;;2.42;1.40;;;16.50;52.20;;;;;;5009114;28;20034;-78
2022/05/19 04:11:21;;;;;;;1.98;1.45;;;16.50;52.10;;;;;;5008554;28;20066;-77
2022/05/19 04:13:47;;;;;;;2.35;1.50;;;16.50;52.20;;;;;;5003417;28;20069;-77
2022/05/19 04:16:13;;;;;;;3.10;1.55;;;16.50;52.20;;;;;;5007747;28;20588;-75
2022/05/19 04:18:39;;;;;;;1.70;1.60;;;16.50;52.20;;;;;;5008439;28;20117;-76
2022/05/19 04:21:05;;;;;;;3.97;1.88;;;16.50;52.30;;;;;;5006610;28;20032;-74
2022/05/19 04:23:32;;;;;;;5.82;1.70;;;16.40;52.30;;;;;;5007437;28;20252;-76
2022/05/19 04:25:58;;;;;;;3.33;1.40;;;16.40;52.40;;;;;;5005929;28;20543;-75
2022/05/19 04:28:25;;;;;;;1.80;1.23;;;16.40;52.40;;;;;;5006358;28;20433;-75
2022/05/19 04:30:51;;;;;;;1.55;1.45;;;16.40;52.40;;;;;;5006908;28;20109;-75
2022/05/19 04:33:17;;;;;;;3.28;1.50;;;16.40;52.50;;;;;;5008741;28;20034;-76
2022/05/19 04:35:43;;;;;;;4.97;1.90;;;16.40;52.50;;;;;;5005711;28;20048;-75
2022/05/19 04:38:15;;;;;;;2.10;1.60;;;16.40;52.60;;;;;;5006237;28;20034;-76
2022/05/19 04:40:47;;;;;;;1.90;1.80;;;16.40;52.80;;;;;;5007429;28;20034;-77
2022/05/19 04:43:19;;;;;;;3.03;1.52;;;16.40;53.00;;;;;;5008368;28;20040;-77
2022/05/19 04:45:48;;;;;;;1.40;1.30;;;16.30;53.10;;;;;;4998203;28;20142;-75
2022/05/19 04:48:14;;;;;;;3.30;1.48;;;16.30;53.10;;;;;;5009247;28;20058;-76
2022/05/19 04:50:40;;;;;;;1.98;1.40;;;16.30;53.30;;;;;;5008675;28;20069;-75
2022/05/19 04:53:06;;;;;;;4.07;1.23;;;16.30;53.50;;;;;;5008564;28;20034;-76
2022/05/19 04:55:34;;;;;;;1.48;1.40;;;16.30;53.60;;;;;;5009633;28;20046;-81
2022/05/19 04:57:59;;;;;;;2.75;1.70;;;16.30;54.00;;;;;;5009469;28;20075;-81
2022/05/19 05:00:25;;;;;;;6.15;1.60;;;16.30;54.30;;;;;;5009332;28;20118;-81
2022/05/19 05:02:51;;;;;;;3.15;1.50;;;16.30;54.60;;;;;;5005669;28;20034;-80
2022/05/19 05:05:17;;;;;;;2.28;1.50;;;16.30;54.90;;;;;;5007694;28;20045;-84
2022/05/19 05:07:43;;;;;;;2.33;1.48;;;16.30;55.00;;;;;;5008166;28;20405;-85
2022/05/19 05:10:10;;;;;;;1.58;1.48;;;16.30;55.20;;;;;;4996265;28;20058;-82
2022/05/19 05:12:36;;;;;;;2.22;1.55;;;16.30;55.30;;;;;;5015072;28;20026;-82
2022/05/19 05:15:03;;;;;;;2.72;1.50;;;16.20;55.50;;;;;;5007883;28;20061;-81
2022/05/19 05:17:29;;;;;;;2.80;1.58;;;16.30;55.60;;;;;;5006725;28;20037;-76
2022/05/19 05:19:55;;;;;;;3.65;1.55;;;16.20;55.80;;;;;;5006516;28;20041;-76
2022/05/19 05:22:21;;;;;;;1.90;1.55;;;16.20;56.00;;;;;;5007636;28;20089;-76
2022/05/19 05:24:47;;;;;;;3.08;1.40;;;16.10;56.20;;;;;;5006540;28;20512;-76
2022/05/19 05:27:13;;;;;;;4.30;2.20;;;16.10;56.50;;;;;;5006622;28;20037;-76
2022/05/19 05:29:41;;;;;;;4.35;1.88;;;16.20;56.70;;;;;;5006701;28;20041;-78
2022/05/19 05:32:08;;;;;;;2.67;2.13;;;16.20;56.90;;;;;;5005371;28;20145;-79
2022/05/19 05:34:34;;;;;;;2.88;2.00;;;16.20;57.00;;;;;;5006526;28;20525;-78
2022/05/19 05:37:00;;;;;;;2.10;1.90;;;16.20;57.20;;;;;;5006628;28;20041;-78
2022/05/19 05:39:26;;;;;;;2.90;1.80;;;16.20;57.30;;;;;;5006502;28;20120;-79
2022/05/19 05:41:52;;;;;;;3.15;1.95;;;16.20;57.50;;;;;;5006591;28;20555;-78
2022/05/19 05:44:18;;;;;;;2.83;2.08;;;16.20;57.60;;;;;;5004695;28;20485;-78
2022/05/19 05:46:45;;;;;;;2.22;2.03;;;16.20;57.90;;;;;;5006560;28;20037;-78
2022/05/19 05:49:11;;;;;;;4.38;1.92;;;16.20;58.00;;;;;;5006836;28;20041;-79
2022/05/19 05:51:37;;;;;;;1.83;1.73;;;16.20;58.10;;;;;;5009044;28;20165;-81
2022/05/19 05:54:03;;;;;;;3.33;2.03;;;16.20;58.20;;;;;;5008042;28;20037;-79
2022/05/19 05:56:29;;;;;;;3.08;2.03;;;16.10;58.20;;;;;;5009145;28;20097;-80
2022/05/19 05:58:55;;;;;;;3.03;1.85;;;16.10;59.60;;;;;;5010081;28;20639;-80
2022/05/19 06:01:22;;;;;;;3.20;2.05;;;16.10;59.60;;;;;;5006884;28;20125;-80
2022/05/19 06:03:48;;;;;;;4.70;2.28;;;16.00;60.10;;;;;;5006809;28;20069;-80
2022/05/19 06:06:15;;;;;;;2.10;1.88;;;15.90;60.30;;;;;;5007610;28;20041;-81
2022/05/19 06:08:42;;;;;;;4.35;2.38;;;15.90;60.40;;;;;;5006716;28;20034;-79
2022/05/19 06:11:08;;;;;;;4.40;2.22;;;15.90;60.70;;;;;;5005664;28;20417;-78
2022/05/19 06:13:35;;;;;;;3.25;2.28;;;15.90;60.90;;;;;;5006912;28;20471;-81
2022/05/19 06:16:01;;;;;;;5.13;2.50;;;15.80;61.00;;;;;;5013462;28;20038;-81
2022/05/19 06:18:27;;;;;;;4.10;2.35;;;15.80;61.10;;;;;;5006196;28;20041;-81
2022/05/19 06:20:55;;;;;;;3.78;2.50;;;15.80;61.30;;;;;;4997656;28;20081;-80
2022/05/19 06:23:22;;;;;;;4.05;2.65;;;15.80;61.40;;;;;;5004369;28;20040;-81
2022/05/19 06:25:48;;;;;;;2.97;2.03;;;15.80;61.80;;;;;;5005917;28;20075;-80
2022/05/19 06:28:15;;;;;;;3.65;2.55;;;15.70;62.30;;;;;;5005417;28;20050;-79
2022/05/19 06:30:42;;;;;;;3.33;2.17;;;15.60;62.60;;;;;;5017188;28;20061;-79
2022/05/19 06:33:09;;;;;;;3.97;2.45;;;15.70;62.60;;;;;;5018226;28;20052;-80
2022/05/19 06:35:37;;;;;;;2.97;2.58;;;15.60;62.70;;;;;;5017259;28;20508;-81
2022/05/19 06:38:03;;;;;;;5.78;2.58;;;15.60;62.90;;;;;;5008348;28;20452;-80
2022/05/19 06:40:30;;;;;;;4.78;2.58;;;15.60;63.20;;;;;;5008553;28;20041;-82
2022/05/19 06:42:56;;;;;;;6.30;2.80;;;15.60;63.50;;;;;;5010352;28;20090;-80
2022/05/19 06:45:28;;;;;;;2.90;2.55;;;15.70;63.50;;;;;;5008628;28;20509;-82
2022/05/19 06:48:12;;;;;;;3.58;2.90;;;15.70;63.70;;;;;;5008555;28;20069;-81
2022/05/19 06:50:39;;;;;;;5.55;2.45;;;15.60;63.70;;;;;;5007541;28;20034;-83
2022/05/19 06:53:07;;;;;;;4.20;2.83;;;15.50;63.70;;;;;;5007573;28;20098;-80
2022/05/19 06:55:36;;;;;;;3.83;2.40;;;15.50;63.70;;;;;;5005725;28;20084;-80
2022/05/19 06:58:02;;;;;;;3.38;2.55;;;15.50;63.90;;;;;;5019943;28;20041;-81
2022/05/19 07:00:30;;;;;;;4.05;2.42;;;15.60;63.90;;;;;;5015621;28;20076;-80
2022/05/19 07:02:58;;;;;;;3.13;2.70;;;15.50;64.00;;;;;;5026464;28;20042;-80
2022/05/19 07:05:27;;;;;;;4.63;2.60;;;15.50;64.10;;;;;;5015324;28;20455;-80
2022/05/19 07:07:53;;;;;;;3.00;2.67;;;15.60;64.30;;;;;;5012893;28;20112;-81
2022/05/19 07:10:21;;;;;;;3.40;2.65;;;15.50;64.10;;;;;;5005470;28;20089;-81
2022/05/19 07:12:48;;;;;;;5.20;2.50;;;15.50;64.20;;;;;;5004400;28;20413;-80
2022/05/19 07:15:16;;;;;;;4.57;2.60;;;15.50;64.00;;;;;;5004540;28;20034;-81
2022/05/19 07:17:43;;;;;;;4.45;2.10;;;15.60;63.60;;;;;;5005743;28;20030;-80
2022/05/19 07:22:54;;;;;;;4.28;2.20;;;15.60;63.10;;;;;;5006033;28;20034;-80
2022/05/19 07:25:21;;;;;;;4.10;2.40;;;15.50;63.00;;;;;;4996033;28;20030;-80
2022/05/19 07:27:47;;;;;;;2.80;2.60;;;15.50;63.30;;;;;;5005582;28;20030;-80
2022/05/19 07:30:13;;;;;;;4.30;2.00;;;15.40;63.60;;;;;;5004748;28;20022;-80
2022/05/19 07:32:39;;;;;;;2.25;2.05;;;15.40;63.80;;;;;;5005887;28;20041;-80
2022/05/19 07:35:07;;;;;;;4.97;2.28;;;15.50;63.80;;;;;;5005317;28;20588;-81
2022/05/19 07:37:33;;;;;;;2.33;2.13;;;15.50;63.90;;;;;;5005493;28;20053;-81
2022/05/19 07:39:59;;;;;;;3.72;2.75;;;15.50;64.10;;;;;;5005539;28;20057;-81
2022/05/19 07:42:25;;;;;;;2.42;2.22;;;15.50;64.40;;;;;;5006257;28;20065;-81
2022/05/19 07:44:51;;;;;;;3.33;2.35;;;15.60;64.50;;;;;;5005617;28;20472;-80
2022/05/19 07:47:19;;;;;;;3.55;2.90;;;15.60;64.90;;;;;;5005005;28;20476;-80
2022/05/19 07:49:45;;;;;;;5.80;2.90;;;15.60;65.20;;;;;;5004311;28;20073;-80
2022/05/19 07:52:12;;;;;;;3.65;2.70;;;15.60;65.00;;;;;;5005955;28;20057;-81
2022/05/19 07:54:39;;;;;;;3.58;2.50;;;15.60;64.90;;;;;;5006226;28;20539;-80
2022/05/19 07:57:06;;;;;;;4.93;2.72;;;15.70;64.90;;;;;;5003855;28;20099;-81
2022/05/19 07:59:34;;;;;;;2.60;2.38;;;15.70;64.90;;;;;;5005252;28;20038;-89
2022/05/19 08:02:01;;;;;;;3.65;2.00;;;15.70;65.10;;;;;;4973605;28;20033;-81
2022/05/19 08:04:27;;;;;;;2.90;1.77;;;15.80;65.40;;;;;;5000462;28;20029;-81
2022/05/19 08:06:53;;;;;;;3.90;2.38;;;15.80;66.60;;;;;;5009536;28;20057;-79
2022/05/19 08:15:34;;;;;;;4.50;2.58;;;16.00;67.60;;;;;;4983290;28;20042;-79
2022/05/19 08:17:55;;;;;;;4.03;2.35;;;16.10;66.20;;;;;;4977233;28;20102;-80
2022/05/19 08:20:21;;;;;;;3.55;2.70;;;16.10;66.00;;;;;;4967325;28;20039;-80
2022/05/19 08:22:48;;;;;;;4.60;2.33;;;16.10;65.60;;;;;;4967429;28;20637;-80
2022/05/19 08:25:14;;;;;;;2.47;2.28;;;16.10;65.60;;;;;;4950825;28;20093;-80
2022/05/19 08:27:44;;;;;;;3.17;2.30;;;16.20;65.40;;;;;;4965955;28;20581;-77
2022/05/19 08:30:12;;;;;;;4.97;2.45;;;16.20;65.20;;;;;;4966777;28;20045;-79
2022/05/19 08:32:38;;;;;;;3.20;2.25;;;16.20;65.10;;;;;;4966222;28;20074;-77
2022/05/19 08:35:07;;;;;;;3.10;2.40;;;16.20;64.80;;;;;;4966564;28;20058;-78
2022/05/19 08:37:33;;;;;;;2.80;2.40;;;16.20;64.50;;;;;;4966550;28;20039;-79
2022/05/19 08:39:59;;;;;;;4.28;2.47;;;16.20;64.10;;;;;;4966296;28;20118;-79
2022/05/19 08:42:29;;;;;;;5.40;3.20;;;16.20;64.30;;;;;;4950372;28;20502;-81
2022/05/19 08:44:58;;;;;;;3.85;3.05;;;16.20;64.40;;;;;;4965890;28;20089;-81
2022/05/19 08:47:31;;;;;;;5.43;2.72;;;16.20;64.70;;;;;;4966584;28;20046;-81
2022/05/19 08:50:05;;;;;;;6.97;3.08;;;16.20;64.80;;;;;;5000942;28;20064;-81
2022/05/19 08:52:45;;;;;;;5.35;2.70;;;16.20;64.60;;;;;;5023082;28;20485;-81
2022/05/19 08:55:15;;;;;;;5.05;2.60;;;16.20;64.30;;;;;;5022200;28;20334;-82
2022/05/19 08:58:19;;;;;;;4.28;2.95;;;16.30;64.30;;;;;;5005265;28;20041;-81
2022/05/19 09:00:49;;;;;;;3.72;2.78;;;16.30;63.90;;;;;;5007730;28;20037;-81
2022/05/19 09:03:33;;;;;;;2.67;2.35;;;16.40;63.60;;;;;;5007315;28;20164;-82
2022/05/19 09:06:21;;;;;;;3.90;2.30;;;16.40;63.40;;;;;;5007338;28;20038;-82
2022/05/19 09:09:12;;;;;;;5.00;2.50;;;16.50;63.30;;;;;;5007984;28;20057;-82
2022/05/19 09:12:05;;;;;;;3.80;2.45;;;16.50;62.90;;;;;;5005068;28;20030;-81
2022/05/19 09:14:32;;;;;;;4.40;2.55;;;16.60;62.60;;;;;;5006004;28;20073;-81
2022/05/19 09:17:05;;;;;;;3.00;2.50;;;16.60;62.50;;;;;;5005945;28;20493;-81
2022/05/19 09:19:45;;;;;;;5.32;2.25;;;16.60;62.40;;;;;;5007660;28;20038;-81
2022/05/19 09:22:19;;;;;;;2.47;2.28;;;16.60;62.30;;;;;;5025291;28;20517;-82
2022/05/19 09:24:48;;;;;;;6.88;2.53;;;16.70;62.30;;;;;;5008518;28;20022;-79
2022/05/19 09:27:16;;;;;;;3.25;2.30;;;16.70;62.10;;;;;;5026359;28;20026;-81
2022/05/19 09:29:48;;;;;;;4.30;2.25;;;16.70;62.00;;;;;;5014201;28;20065;-82
2022/05/19 09:32:26;;;;;;;3.10;2.45;;;16.70;61.80;;;;;;5007405;28;20532;-81
2022/05/19 09:35:08;;;;;;;2.30;2.08;;;16.70;61.60;;;;;;5007590;28;20034;-81
2022/05/19 09:37:43;;;;;;;3.70;2.25;;;16.80;61.40;;;;;;5007177;28;20038;-80
2022/05/19 09:40:12;;;;;;;3.72;1.85;;;16.70;60.90;;;;;;5006879;28;20131;-82
2022/05/19 09:43:04;;;;;;;2.30;1.77;;;16.80;60.60;;;;;;5006387;28;20022;-80
2022/05/19 09:45:37;;;;;;;1.83;1.55;;;16.80;60.50;;;;;;5006293;28;20057;-82
2022/05/19 09:48:06;;;;;;;4.55;1.67;;;16.80;60.60;;;;;;5006740;28;20037;-81
2022/05/19 09:50:48;;;;;;;2.45;1.85;;;16.80;60.70;;;;;;5007756;28;20038;-80
2022/05/19 09:53:26;;;;;;;3.60;1.40;;;16.80;60.70;;;;;;5006873;28;20042;-79
2022/05/19 09:56:04;;;;;;;2.58;1.63;;;16.80;60.40;;;;;;4984386;28;20037;-81
2022/05/19 09:58:32;;;;;;;2.10;1.45;;;16.90;60.00;;;;;;5021681;28;20581;-79
2022/05/19 10:01:03;;;;;;;4.35;1.70;;;16.90;60.00;;;;;;5004639;28;20519;-80
2022/05/19 10:03:37;;;;;;;2.47;1.63;;;16.90;60.20;;;;;;5006688;28;20050;-80
2022/05/19 10:06:06;;;;;;;2.47;1.65;;;16.90;60.00;;;;;;5005261;28;20520;-80
2022/05/19 10:08:41;;;;;;;3.25;1.70;;;16.90;59.70;;;;;;5006731;28;20084;-82
2022/05/19 10:11:14;;;;;;;2.10;1.90;;;16.90;59.60;;;;;;5006562;28;20077;-81
2022/05/19 10:13:48;;;;;;;2.63;1.95;;;16.90;59.50;;;;;;5006234;28;20790;-81
2022/05/19 10:16:39;;;;;;;2.20;2.00;;;16.90;59.60;;;;;;5006514;28;20025;-82
2022/05/19 10:19:13;;;;;;;2.22;1.77;;;17.00;59.50;;;;;;5005294;28;20038;-82
2022/05/19 10:21:55;;;;;;;4.60;2.30;;;17.00;59.60;;;;;;5004354;28;20022;-82
2022/05/19 10:24:59;;;;;;;4.90;1.80;;;16.90;59.40;;;;;;4996974;28;20044;-80
2022/05/19 10:33:08;;;;;;;3.63;1.50;;;17.00;59.30;;;;;;5009385;28;20093;-82
2022/05/19 10:36:19;;;;;;;2.83;1.48;;;17.00;59.10;;;;;;5008222;28;20125;-82
2022/05/19 10:38:59;;;;;;;1.63;1.30;;;17.00;59.20;;;;;;5010359;28;20030;-81
2022/05/19 10:41:46;;;;;;;3.70;1.30;;;17.00;59.10;;;;;;5011561;28;20026;-79
2022/05/19 10:44:32;;;;;;;2.05;1.20;;;17.00;58.90;;;;;;5008449;28;20048;-82
2022/05/19 10:47:18;;;;;;;1.00;0.98;;;17.00;59.00;;;;;;5005688;28;20053;-81
2022/05/19 10:49:49;;;;;;;2.13;1.50;;;17.10;58.80;;;;;;5006018;28;20041;-80
2022/05/19 10:53:12;;;;;;;5.03;1.77;;;17.10;58.70;;;;;;5005945;28;20065;-80
2022/05/19 10:55:56;;;;;;;2.15;1.10;;;17.10;58.70;;;;;;4966966;28;20035;-80
2022/05/19 10:58:46;;;;;;;2.35;1.40;;;17.20;58.80;;;;;;4964661;28;20039;-80
2022/05/19 11:01:15;;;;;;;1.60;1.02;;;17.20;58.80;;;;;;4964100;28;20033;-79
2022/05/19 11:03:55;;;;;;;1.33;1.00;;;17.20;58.70;;;;;;4963919;28;20034;-79
2022/05/19 11:06:57;;;;;;;1.60;1.50;;;17.20;58.80;;;;;;4948649;28;20515;-79
2022/05/19 11:09:23;;;;;;;2.83;1.15;;;17.30;58.90;;;;;;4964023;28;20034;-79
2022/05/19 11:12:14;;;;;;;1.83;1.10;;;17.30;59.30;;;;;;4948231;28;20082;-79
2022/05/19 11:14:56;;;;;;;3.15;1.20;;;17.30;59.10;;;;;;4962783;28;20838;-80
2022/05/19 11:17:48;;;;;;;3.13;1.30;;;17.30;59.00;;;;;;4963880;28;20045;-79
2022/05/19 11:20:30;;;;;;;1.88;1.30;;;17.40;58.90;;;;;;4963597;28;20466;-79
2022/05/19 11:23:23;;;;;;;1.67;1.50;;;17.40;58.80;;;;;;4963846;28;20445;-78
2022/05/19 11:26:25;;;;;;;2.28;1.30;;;17.40;58.90;;;;;;4969485;28;20577;-79
2022/05/19 11:29:08;;;;;;;4.38;1.45;;;17.40;58.90;;;;;;5005521;28;20505;-76
2022/05/19 11:31:56;;;;;;;3.00;1.38;;;17.50;58.40;;;;;;5005581;28;20037;-79
2022/05/19 11:34:52;;;;;;;1.52;1.20;;;17.50;57.80;;;;;;4996403;28;20704;-79
2022/05/19 11:37:39;;;;;;;;;;;17.50;57.40;;;;;;5004183;28;20026;-78
2022/05/19 11:40:40;;;;;;;2.17;1.02;;;17.40;57.10;;;;;;5009836;28;19917;-80
2022/05/19 11:43:39;;;;;;;1.15;1.00;;;17.40;57.30;;;;;;5008246;28;20088;-78
2022/05/19 11:46:09;;;;;;;1.13;1.02;;;17.50;57.60;;;;;;5008290;28;20543;-78
2022/05/19 11:57:45;;;;;;;2.50;1.08;;;17.50;57.10;;;;;;5010497;28;20030;-79
2022/05/19 12:00:18;;;;;;;1.70;1.13;;;17.50;57.30;;;;;;5008631;28;20037;-78
2022/05/19 12:02:55;;;;;;;1.30;1.20;;;17.50;57.40;;;;;;5010068;28;20125;-79
2022/05/19 12:05:32;;;;;;;3.22;1.17;;;17.50;57.20;;;;;;5009208;28;20069;-81
2022/05/19 12:08:10;;;;;;;2.00;1.05;;;17.50;57.00;;;;;;5008434;28;20641;-79
2022/05/19 12:10:39;;;;;;;1.55;1.30;;;17.50;56.80;;;;;;5009300;28;20148;-80
2022/05/19 12:13:06;;;;;;;1.88;1.52;;;17.60;57.00;;;;;;5010698;28;20057;-80
2022/05/19 12:15:56;;;;;;;3.58;1.30;;;17.60;56.70;;;;;;5016821;28;20038;-79
2022/05/19 12:18:27;;;;;;;2.50;1.58;;;17.60;56.60;;;;;;5009407;28;20038;-80
2022/05/19 12:21:02;;;;;;;1.38;1.08;;;17.60;56.90;;;;;;5009651;28;20405;-78
2022/05/19 12:23:34;;;;;;;1.92;1.00;;;17.60;57.60;;;;;;5001675;28;20413;-78
2022/05/19 12:26:06;;;;;;;3.60;1.08;;;17.70;57.80;;;;;;5009133;28;20038;-77
2022/05/19 12:28:57;;;;;;;2.28;1.10;;;17.70;58.10;;;;;;5009373;28;20089;-78
2022/05/19 12:34:22;;;;;;;2.85;1.10;;;17.70;58.80;;;;;;5009606;28;20048;-78
2022/05/19 12:37:13;;;;;;;2.88;1.10;;;17.70;58.60;;;;;;5009453;28;20042;-77
2022/05/19 12:39:45;;;;;;;2.03;1.10;;;17.70;58.80;;;;;;5008895;28;20505;-78
2022/05/19 12:42:23;;;;;;;2.92;1.42;;;17.80;58.40;;;;;;5007152;28;20037;-77
2022/05/19 12:44:51;;;;;;;1.83;1.40;;;17.80;58.40;;;;;;5008297;28;20125;-78
2022/05/19 12:47:30;;;;;;;2.28;1.23;;;17.80;58.40;;;;;;5009794;28;20716;-78
2022/05/19 12:50:07;;;;;;;2.28;1.65;;;17.70;58.30;;;;;;5008938;28;20689;-77
2022/05/19 12:52:56;;;;;;;3.05;1.30;;;17.80;57.80;;;;;;5002689;28;20045;-77
2022/05/19 12:55:25;;;;;;;2.85;1.23;;;17.80;57.80;;;;;;5019325;28;20042;-78
2022/05/19 12:57:54;;;;;;;2.30;1.20;;;17.70;57.90;;;;;;5035373;28;20030;-78
2022/05/19 13:00:26;;;;;;;2.83;1.15;;;17.70;57.80;;;;;;5011927;28;21155;-77
2022/05/19 13:02:55;;;;;;;1.48;1.00;;;17.70;58.20;;;;;;5009251;28;20394;-76
2022/05/19 13:05:30;;;;;;;4.03;1.10;;;17.70;58.50;;;;;;5008301;28;20116;-78
2022/05/19 13:08:14;;;;;;;2.83;1.48;;;17.70;58.50;;;;;;5008008;28;20087;-76
2022/05/19 13:10:46;;;;;;;2.90;1.48;;;17.60;58.50;;;;;;5007600;28;20030;-78
2022/05/19 13:13:37;;;;;;;2.75;1.30;;;17.60;58.40;;;;;;4999280;28;20111;-78
2022/05/19 13:16:42;;;;;;;1.98;1.40;;;17.60;58.50;;;;;;5010301;28;20041;-78
2022/05/19 13:19:17;;;;;;;4.50;1.65;;;17.50;58.80;;;;;;4948848;28;20090;-78
2022/05/19 13:22:02;;;;;;;3.25;2.00;;;17.40;59.50;;;;;;4947510;28;20051;-77
2022/05/19 13:24:33;;;;;;;3.97;1.80;;;17.30;59.50;;;;;;4947304;28;20403;-78
2022/05/19 13:32:36;;;;;;;2.15;1.67;;;17.10;60.70;;;;;;4947467;28;20036;-76
2022/05/19 13:35:16;;;;;;;4.35;1.80;;;17.00;61.20;;;;;;4946614;28;20558;-77
2022/05/19 13:37:44;;;;;;;3.53;1.77;;;17.00;62.00;;;;;;4931517;29;20696;-77
2022/05/19 13:40:14;;;;;;;7.70;2.05;;;16.90;62.50;;;;;;4950924;28;20039;-76
2022/05/19 13:42:51;;;;;;;2.85;1.48;;;16.90;62.90;;;;;;4960220;28;20105;-78
2022/05/19 13:45:21;;;;;;;3.20;1.80;;;16.80;63.10;;;;;;4953458;28;20442;-78